Time;durP1;ratioP1;P1;durP2;ratioP2;P2;SDS_P1;SDS_P2;PMS_P1;PMS_P2;Temp;Humidity;BMP_temperature;BMP_pressure;BME280_temperature;BME280_humidity;BME280_pressure;Samples;Min_cycle;Max_cycle;Signal;HPM_P1;HPM_P2
2023/12/06 00:01:46;;;;;;;;;;;;;;;6.32;70.70;100943.13;7368794;19;19922;-60
2023/12/06 00:04:11;;;;;;;;;;;;;;;6.34;70.65;100941.44;7367761;19;19918;-60
2023/12/06 00:06:37;;;;;;;;;;;;;;;6.37;70.75;100946.59;7364897;19;20401;-60
2023/12/06 00:09:02;;;;;;;;;;;;;;;6.40;70.61;100936.22;7366278;19;19925;-60
2023/12/06 00:11:27;;;;;;;;;;;;;;;6.41;70.77;100924.97;7364789;19;19923;-59
2023/12/06 00:13:53;;;;;;;;;;;;;;;6.43;70.53;100922.38;7361179;19;20232;-60
2023/12/06 00:16:18;;;;;;;;;;;;;;;6.44;70.68;100921.53;7362964;19;20014;-60
2023/12/06 00:18:45;;;;;;;;;;;;;;;6.44;70.58;100922.38;7363727;19;19921;-58
2023/12/06 00:21:10;;;;;;;;;;;;;;;6.43;70.61;100920.63;7354816;19;19963;-60
2023/12/06 00:23:36;;;;;;;;;;;;;;;6.42;70.56;100913.72;7362614;19;20363;-60
2023/12/06 00:26:01;;;;;;;;;;;;;;;6.43;70.61;100907.66;7363244;19;20494;-59
2023/12/06 00:28:26;;;;;;;;;;;;;;;6.44;70.68;100905.97;7366292;19;19925;-60
2023/12/06 00:30:52;;;;;;;;;;;;;;;6.43;70.61;100909.38;7365702;19;19938;-60
2023/12/06 00:33:17;;;;;;;;;;;;;;;6.42;70.48;100903.34;7362480;19;20338;-59
2023/12/06 00:35:42;;;;;;;;;;;;;;;6.41;70.60;100901.63;7363128;19;19962;-60
2023/12/06 00:38:07;;;;;;;;;;;;;;;6.40;70.88;100910.28;7363693;19;20618;-60
2023/12/06 00:40:33;;;;;;;;;;;;;;;6.38;70.74;100900.75;7366739;19;19932;-60
2023/12/06 00:42:58;;;;;;;;;;;;;;;6.35;70.45;100895.59;7363741;19;19915;-60
2023/12/06 00:45:23;;;;;;;;;;;;;;;6.33;70.54;100895.56;7359834;19;19943;-60
2023/12/06 00:47:48;;;;;;;;;;;;;;;6.30;70.46;100898.19;7364711;19;19918;-60
2023/12/06 00:50:14;;;;;;;;;;;;;;;6.27;70.92;100903.38;7369227;19;20005;-60
2023/12/06 00:52:39;;;;;;;;;;;;;;;6.23;70.80;100902.53;7364279;19;19927;-59
2023/12/06 00:55:05;;;;;;;;;;;;;;;6.20;70.58;100896.50;7360711;19;19946;-58
2023/12/06 00:57:30;;;;;;;;;;;;;;;6.16;70.43;100902.53;7356881;19;19938;-59
2023/12/06 00:59:55;;;;;;;;;;;;;;;6.13;70.57;100889.56;7364025;19;19930;-60
2023/12/06 01:02:21;;;;;;;;;;;;;;;6.09;70.58;100888.72;7360768;19;19910;-59
2023/12/06 01:04:50;;;;;;;;;;;;;;;6.07;70.39;100894.75;7361690;19;19930;-60
2023/12/06 01:07:15;;;;;;;;;;;;;;;5.92;70.41;100869.72;7362118;19;19990;-60
2023/12/06 01:09:41;;;;;;;;;;;;;;;6.01;70.53;100890.44;7363881;19;19979;-59
2023/12/06 01:12:06;;;;;;;;;;;;;;;6.00;70.51;100898.25;7363221;19;19919;-59
2023/12/06 01:14:31;;;;;;;;;;;;;;;5.98;70.84;100906.00;7361188;19;19918;-60
2023/12/06 01:16:56;;;;;;;;;;;;;;;5.96;70.73;100907.75;7371019;19;19906;-59
2023/12/06 01:19:22;;;;;;;;;;;;;;;5.93;70.71;100898.25;7367393;19;19922;-60
2023/12/06 01:21:47;;;;;;;;;;;;;;;5.93;70.68;100897.34;7362545;19;20315;-60
2023/12/06 01:24:12;;;;;;;;;;;;;;;5.91;70.63;100889.59;7364248;19;19926;-60
2023/12/06 01:26:37;;;;;;;;;;;;;;;5.89;71.01;100883.53;7341153;19;19927;-60
2023/12/06 01:29:04;;;;;;;;;;;;;;;5.89;70.93;100890.44;7370376;19;19950;-60
2023/12/06 01:31:30;;;;;;;;;;;;;;;5.86;70.93;100888.69;7369573;19;19911;-60
2023/12/06 01:33:55;;;;;;;;;;;;;;;5.86;70.77;100882.66;7366616;19;19925;-59
2023/12/06 01:36:20;;;;;;;;;;;;;;;5.84;71.00;100867.13;7363267;19;19946;-59
2023/12/06 01:38:46;;;;;;;;;;;;;;;5.82;70.73;100873.16;7362873;19;19924;-59
2023/12/06 01:41:11;;;;;;;;;;;;;;;5.81;70.82;100866.25;7363807;19;19934;-59
2023/12/06 01:43:40;;;;;;;;;;;;;;;5.80;70.69;100864.53;7363350;19;19943;-60
2023/12/06 01:46:05;;;;;;;;;;;;;;;5.78;70.84;100861.94;7354524;19;20615;-60
2023/12/06 01:48:31;;;;;;;;;;;;;;;5.76;70.57;100858.47;7363099;19;19926;-60
2023/12/06 01:50:57;;;;;;;;;;;;;;;5.77;71.08;100862.78;7361747;19;19961;-60
2023/12/06 01:53:22;;;;;;;;;;;;;;;5.76;70.86;100855.88;7358446;19;19925;-60
2023/12/06 01:55:47;;;;;;;;;;;;;;;5.77;70.91;100852.41;7361955;19;19918;-60
2023/12/06 01:58:13;;;;;;;;;;;;;;;5.76;70.81;100842.94;7361922;19;19915;-60
2023/12/06 02:00:39;;;;;;;;;;;;;;;5.77;70.85;100849.81;7363155;19;19937;-60
2023/12/06 02:03:05;;;;;;;;;;;;;;;5.78;71.02;100846.41;7354365;19;20358;-60
2023/12/06 02:05:30;;;;;;;;;;;;;;;5.79;70.86;100842.94;7354621;19;19918;-60
2023/12/06 02:07:56;;;;;;;;;;;;;;;5.81;70.87;100840.34;7361936;19;19958;-59
2023/12/06 02:10:21;;;;;;;;;;;;;;;5.82;70.72;100842.91;7359372;19;19978;-58
2023/12/06 02:12:47;;;;;;;;;;;;;;;5.85;71.05;100831.69;7358875;19;19943;-59
2023/12/06 02:15:12;;;;;;;;;;;;;;;5.87;71.07;100833.41;7361221;19;19919;-59
2023/12/06 02:17:38;;;;;;;;;;;;;;;5.90;70.94;100832.56;7358592;19;19914;-59
2023/12/06 02:20:03;;;;;;;;;;;;;;;5.92;70.80;100830.84;7362191;19;19926;-60
2023/12/06 02:22:29;;;;;;;;;;;;;;;5.94;70.86;100836.91;7363244;19;19922;-59
2023/12/06 02:24:56;;;;;;;;;;;;;;;5.95;71.08;100829.13;7351695;19;20258;-60
2023/12/06 02:27:22;;;;;;;;;;;;;;;5.96;70.90;100841.22;7356789;19;19914;-59
2023/12/06 02:29:47;;;;;;;;;;;;;;;5.97;71.12;100836.88;7362792;19;19918;-60
2023/12/06 02:32:12;;;;;;;;;;;;;;;5.98;71.06;100834.31;7360429;19;19942;-59
2023/12/06 02:34:38;;;;;;;;;;;;;;;6.00;70.88;100831.72;7360154;19;19923;-59
2023/12/06 02:37:07;;;;;;;;;;;;;;;6.01;71.02;100837.75;7356432;19;20776;-60
2023/12/06 02:39:35;;;;;;;;;;;;;;;6.01;71.03;100823.06;7359369;19;19950;-59
2023/12/06 02:42:00;;;;;;;;;;;;;;;6.03;70.84;100830.81;7358225;19;20349;-60
2023/12/06 02:44:25;;;;;;;;;;;;;;;6.04;70.88;100822.19;7350717;19;19923;-60
2023/12/06 02:46:51;;;;;;;;;;;;;;;6.03;71.03;100815.28;7368216;19;19923;-59
2023/12/06 02:49:16;;;;;;;;;;;;;;;6.04;70.90;100817.03;7356951;19;19923;-60
2023/12/06 02:51:41;;;;;;;;;;;;;;;6.04;70.64;100823.06;7358592;19;19947;-60
2023/12/06 02:54:06;;;;;;;;;;;;;;;6.05;70.70;100823.94;7358893;19;19915;-60
2023/12/06 02:56:32;;;;;;;;;;;;;;;6.03;70.83;100826.50;7358853;19;19926;-60
2023/12/06 02:58:57;;;;;;;;;;;;;;;6.03;70.71;100821.31;7355195;19;20327;-59
2023/12/06 03:01:22;;;;;;;;;;;;;;;6.02;70.94;100827.38;7362590;19;19923;-59
2023/12/06 03:03:47;;;;;;;;;;;;;;;6.02;70.72;100823.91;7362397;19;19917;-60
2023/12/06 03:06:13;;;;;;;;;;;;;;;6.02;70.99;100829.09;7359839;19;19952;-60
2023/12/06 03:08:38;;;;;;;;;;;;;;;6.02;70.75;100823.91;7359959;19;20328;-59
2023/12/06 03:11:03;;;;;;;;;;;;;;;6.02;70.80;100823.91;7363111;19;19925;-59
2023/12/06 03:13:28;;;;;;;;;;;;;;;6.02;71.21;100818.72;7363697;19;19927;-60
2023/12/06 03:15:54;;;;;;;;;;;;;;;6.03;70.87;100804.91;7360441;19;19918;-59
2023/12/06 03:18:19;;;;;;;;;;;;;;;6.03;71.27;100804.91;7357577;19;19914;-59
2023/12/06 03:20:44;;;;;;;;;;;;;;;6.04;70.78;100801.47;7359372;19;20329;-59
2023/12/06 03:23:10;;;;;;;;;;;;;;;6.05;70.85;100803.19;7362491;19;19915;-60
2023/12/06 03:25:36;;;;;;;;;;;;;;;6.05;71.01;100792.81;7357438;19;20029;-60
2023/12/06 03:28:01;;;;;;;;;;;;;;;6.05;71.04;100787.63;7363251;19;19986;-59
2023/12/06 03:30:26;;;;;;;;;;;;;;;6.05;70.96;100798.84;7359901;19;20314;-59
2023/12/06 03:32:51;;;;;;;;;;;;;;;6.06;71.20;100786.75;7363089;19;19915;-58
2023/12/06 03:35:17;;;;;;;;;;;;;;;6.07;71.33;100791.06;7360806;19;19922;-60
2023/12/06 03:37:42;;;;;;;;;;;;;;;6.08;70.90;100787.59;7361766;19;20012;-60
2023/12/06 03:40:07;;;;;;;;;;;;;;;6.08;70.86;100787.59;7352694;19;19922;-60
2023/12/06 03:42:33;;;;;;;;;;;;;;;6.09;71.03;100794.53;7369240;19;19940;-59
2023/12/06 03:44:58;;;;;;;;;;;;;;;6.08;70.98;100788.47;7363422;19;19915;-59
2023/12/06 03:47:23;;;;;;;;;;;;;;;6.10;70.89;100791.06;7360358;19;19927;-60
2023/12/06 03:49:48;;;;;;;;;;;;;;;6.10;71.21;100776.38;7357504;19;20454;-60
2023/12/06 03:52:14;;;;;;;;;;;;;;;6.10;71.02;100770.34;7362315;19;19951;-60
2023/12/06 03:54:39;;;;;;;;;;;;;;;6.11;71.45;100766.88;7362358;19;20034;-59
2023/12/06 03:57:04;;;;;;;;;;;;;;;6.12;71.26;100768.59;7369202;19;19934;-59
2023/12/06 03:59:29;;;;;;;;;;;;;;;6.14;71.39;100772.91;7364734;19;19923;-60
2023/12/06 04:01:55;;;;;;;;;;;;;;;6.15;71.12;100773.78;7370373;19;19922;-59
2023/12/06 04:04:20;;;;;;;;;;;;;;;6.19;71.33;100772.91;7367196;19;19928;-60
2023/12/06 04:06:45;;;;;;;;;;;;;;;6.22;71.66;100765.09;7369309;19;19926;-59
2023/12/06 04:09:13;;;;;;;;;;;;;;;6.26;71.47;100755.56;7366588;19;19914;-59
2023/12/06 04:11:39;;;;;;;;;;;;;;;6.29;71.24;100753.84;7363265;19;19937;-60
2023/12/06 04:14:04;;;;;;;;;;;;;;;6.32;71.48;100751.22;7369025;19;20318;-59
2023/12/06 04:16:29;;;;;;;;;;;;;;;6.37;71.78;100744.28;7365868;19;19915;-59
2023/12/06 04:18:55;;;;;;;;;;;;;;;6.41;71.51;100740.81;7342321;19;19936;-60
2023/12/06 04:21:20;;;;;;;;;;;;;;;6.45;71.74;100742.53;7366816;19;19925;-59
2023/12/06 04:23:45;;;;;;;;;;;;;;;6.50;71.86;100735.56;7368505;19;19926;-60
2023/12/06 04:26:11;;;;;;;;;;;;;;;6.57;71.88;100731.19;7365537;19;19939;-60
2023/12/06 04:28:36;;;;;;;;;;;;;;;6.63;71.69;100727.69;7366854;19;19921;-60
2023/12/06 04:31:01;;;;;;;;;;;;;;;6.68;71.75;100718.16;7368205;19;19925;-60
2023/12/06 04:33:27;;;;;;;;;;;;;;;6.73;71.89;100721.59;7368005;19;19929;-59
2023/12/06 04:35:52;;;;;;;;;;;;;;;6.79;71.68;100716.34;7362895;19;19994;-61
2023/12/06 04:38:17;;;;;;;;;;;;;;;6.83;71.57;100715.47;7369502;19;19942;-60
2023/12/06 04:40:42;;;;;;;;;;;;;;;6.88;71.59;100721.47;7365684;19;20331;-59
2023/12/06 04:43:07;;;;;;;;;;;;;;;6.94;72.03;100718.84;7367830;19;19922;-60
2023/12/06 04:45:33;;;;;;;;;;;;;;;7.00;72.07;100711.03;7355063;19;19911;-60
2023/12/06 04:47:58;;;;;;;;;;;;;;;7.07;71.71;100722.22;7367016;19;20345;-59
2023/12/06 04:50:23;;;;;;;;;;;;;;;7.12;71.83;100715.25;7365140;19;19915;-60
2023/12/06 04:52:48;;;;;;;;;;;;;;;7.17;71.73;100708.28;7372714;19;19918;-60
2023/12/06 04:55:14;;;;;;;;;;;;;;;7.22;71.99;100709.09;7363965;19;19915;-60
2023/12/06 04:57:39;;;;;;;;;;;;;;;7.27;71.78;100720.31;7363660;19;20339;-60
2023/12/06 05:00:07;;;;;;;;;;;;;;;7.32;72.07;100711.63;7369133;19;20057;-60
2023/12/06 05:02:32;;;;;;;;;;;;;;;7.36;72.20;100703.78;7362051;19;19923;-60
2023/12/06 05:04:58;;;;;;;;;;;;;;;7.42;71.74;100702.84;7366861;19;19918;-60
2023/12/06 05:07:23;;;;;;;;;;;;;;;7.47;71.73;100701.06;7360500;19;19923;-59
2023/12/06 05:09:49;;;;;;;;;;;;;;;7.51;72.10;100708.81;7368574;19;19935;-59
2023/12/06 05:12:14;;;;;;;;;;;;;;;7.59;71.96;100702.69;7365865;19;20279;-60
2023/12/06 05:14:39;;;;;;;;;;;;;;;7.64;72.26;100695.69;7367815;19;20279;-60
2023/12/06 05:17:04;;;;;;;;;;;;;;;7.71;71.92;100705.16;7363620;19;20492;-59
2023/12/06 05:19:29;;;;;;;;;;;;;;;7.77;72.11;100699.91;7377276;19;19915;-60
2023/12/06 05:21:55;;;;;;;;;;;;;;;7.84;72.40;100692.88;7371342;19;19917;-60
2023/12/06 05:24:20;;;;;;;;;;;;;;;7.90;72.40;100696.25;7369956;19;19922;-60
2023/12/06 05:26:46;;;;;;;;;;;;;;;7.96;72.18;100701.41;7364114;19;19926;-60
2023/12/06 05:29:11;;;;;;;;;;;;;;;8.01;72.29;100699.63;7366676;19;19918;-60
2023/12/06 05:31:36;;;;;;;;;;;;;;;8.06;72.27;100691.75;7359704;19;19943;-60
2023/12/06 05:34:02;;;;;;;;;;;;;;;8.11;72.11;100705.56;7361459;19;19926;-60
2023/12/06 05:36:27;;;;;;;;;;;;;;;8.15;71.91;100701.16;7362047;19;20992;-60
2023/12/06 05:38:52;;;;;;;;;;;;;;;8.18;71.85;100695.94;7350173;19;19918;-60
2023/12/06 05:41:17;;;;;;;;;;;;;;;8.22;72.14;100695.00;7359442;19;19914;-60
2023/12/06 05:43:43;;;;;;;;;;;;;;;8.23;71.85;100683.72;7369065;19;20709;-60
2023/12/06 05:46:08;;;;;;;;;;;;;;;8.27;72.07;100690.63;7365632;19;20191;-60
2023/12/06 05:48:33;;;;;;;;;;;;;;;8.28;72.03;100681.91;7364797;19;20382;-60
2023/12/06 05:50:58;;;;;;;;;;;;;;;8.31;71.99;100679.25;7357069;19;19922;-60
2023/12/06 05:53:24;;;;;;;;;;;;;;;8.32;72.06;100674.06;7366938;19;19927;-60
2023/12/06 05:55:49;;;;;;;;;;;;;;;8.36;72.10;100659.28;7360356;19;20343;-58
2023/12/06 05:58:14;;;;;;;;;;;;;;;8.39;71.76;100661.00;7367509;19;20039;-59
2023/12/06 06:00:40;;;;;;;;;;;;;;;8.41;71.84;100656.59;7352939;19;19923;-60
2023/12/06 06:03:05;;;;;;;;;;;;;;;8.42;72.05;100653.16;7368339;19;19926;-60
2023/12/06 06:05:30;;;;;;;;;;;;;;;8.45;71.78;100653.94;7360028;19;19974;-61
2023/12/06 06:07:57;;;;;;;;;;;;;;;8.41;72.10;100644.44;7361424;19;19929;-60
2023/12/06 06:10:22;;;;;;;;;;;;;;;8.48;71.73;100643.50;7365319;19;19937;-60
2023/12/06 06:12:48;;;;;;;;;;;;;;;8.48;71.99;100643.50;7368288;19;20347;-60
2023/12/06 06:15:13;;;;;;;;;;;;;;;8.52;71.77;100657.34;7348566;19;20695;-60
2023/12/06 06:17:38;;;;;;;;;;;;;;;8.54;72.02;100645.16;7363486;19;19944;-60
2023/12/06 06:20:05;;;;;;;;;;;;;;;8.55;71.89;100644.25;7353473;19;20751;-60
2023/12/06 06:22:30;;;;;;;;;;;;;;;8.56;71.72;100636.41;7363008;19;19939;-60
2023/12/06 06:24:56;;;;;;;;;;;;;;;8.58;71.71;100629.47;7357880;19;19922;-60
2023/12/06 06:27:21;;;;;;;;;;;;;;;8.60;72.05;100632.03;7365279;19;19914;-60
2023/12/06 06:29:47;;;;;;;;;;;;;;;8.62;71.87;100618.97;7361256;19;19926;-60
2023/12/06 06:32:12;;;;;;;;;;;;;;;8.63;72.02;100621.59;7364264;19;19918;-60
2023/12/06 06:34:37;;;;;;;;;;;;;;;8.64;71.76;100619.84;7359883;19;19929;-60
2023/12/06 06:37:03;;;;;;;;;;;;;;;8.64;71.61;100612.88;7365522;19;19922;-59
2023/12/06 06:39:28;;;;;;;;;;;;;;;8.66;71.94;100616.31;7340863;19;19989;-59
2023/12/06 06:41:54;;;;;;;;;;;;;;;8.67;72.03;100619.78;7363698;19;19915;-59
2023/12/06 06:44:19;;;;;;;;;;;;;;;8.67;71.72;100610.25;7355849;19;19922;-60
2023/12/06 06:46:44;;;;;;;;;;;;;;;8.67;71.71;100601.53;7361929;19;19938;-60
2023/12/06 06:49:10;;;;;;;;;;;;;;;8.70;71.82;100606.72;7364582;19;19918;-60
2023/12/06 06:51:36;;;;;;;;;;;;;;;8.69;71.85;100599.78;7359799;19;19922;-60
2023/12/06 06:54:02;;;;;;;;;;;;;;;8.70;71.95;100597.16;7364425;19;19918;-59
2023/12/06 06:56:27;;;;;;;;;;;;;;;8.71;71.93;100592.81;7363854;19;19966;-60
2023/12/06 06:58:52;;;;;;;;;;;;;;;8.71;71.67;100598.00;7361599;19;19966;-60
2023/12/06 07:01:18;;;;;;;;;;;;;;;8.72;71.94;100587.59;7365279;19;19925;-60
2023/12/06 07:03:43;;;;;;;;;;;;;;;8.73;72.15;100591.91;7361992;19;19919;-60
2023/12/06 07:06:09;;;;;;;;;;;;;;;8.74;71.85;100587.56;7361335;19;19923;-60
2023/12/06 07:08:35;;;;;;;;;;;;;;;8.76;71.88;100590.97;7360496;19;19919;-59
2023/12/06 07:11:00;;;;;;;;;;;;;;;8.76;71.75;100585.78;7363167;19;19947;-61
2023/12/06 07:13:26;;;;;;;;;;;;;;;8.78;71.98;100578.81;7356988;19;19910;-60
2023/12/06 07:15:51;;;;;;;;;;;;;;;8.77;72.09;100562.34;7361916;19;19941;-60
2023/12/06 07:18:16;;;;;;;;;;;;;;;8.78;71.84;100565.81;7359204;19;19919;-60
2023/12/06 07:20:41;;;;;;;;;;;;;;;8.77;72.04;100567.56;7363059;19;20639;-60
2023/12/06 07:23:08;;;;;;;;;;;;;;;8.78;72.01;100584.03;7361284;19;19914;-60
2023/12/06 07:25:33;;;;;;;;;;;;;;;8.79;72.00;100585.75;7362140;19;19923;-60
2023/12/06 07:27:58;;;;;;;;;;;;;;;8.80;71.82;100588.31;7352084;19;19929;-60
2023/12/06 07:30:23;;;;;;;;;;;;;;;8.80;71.92;100584.84;7368015;19;19925;-60
2023/12/06 07:32:49;;;;;;;;;;;;;;;8.80;71.96;100582.25;7369503;19;19925;-63
2023/12/06 07:35:14;;;;;;;;;;;;;;;8.81;71.67;100574.41;7367754;19;20575;-58
2023/12/06 07:37:39;;;;;;;;;;;;;;;8.83;72.03;100569.19;7367498;19;20014;-59
2023/12/06 07:40:09;;;;;;;;;;;;;;;8.81;71.99;100563.13;7358877;19;20834;-59
2023/12/06 07:42:34;;;;;;;;;;;;;;;8.82;71.97;100554.44;7368497;19;20319;-61
2023/12/06 07:44:59;;;;;;;;;;;;;;;8.82;71.95;100549.25;7368227;19;20355;-59
2023/12/06 07:47:25;;;;;;;;;;;;;;;8.82;71.59;100554.44;7380399;19;19918;-60
2023/12/06 07:49:50;;;;;;;;;;;;;;;8.81;71.64;100547.50;7367185;19;19946;-60
2023/12/06 07:52:15;;;;;;;;;;;;;;;8.80;71.95;100551.00;7363151;19;20334;-60
2023/12/06 07:54:40;;;;;;;;;;;;;;;8.80;71.75;100556.22;7365864;19;19911;-60
2023/12/06 07:57:06;;;;;;;;;;;;;;;8.78;71.77;100547.56;7366882;19;20651;-61
2023/12/06 07:59:31;;;;;;;;;;;;;;;8.78;71.62;100547.56;7362972;19;19922;-61
2023/12/06 08:01:56;;;;;;;;;;;;;;;8.77;71.97;100558.88;7363987;19;19930;-61
2023/12/06 08:04:23;;;;;;;;;;;;;;;8.77;71.76;100556.28;7367856;19;19923;-60
2023/12/06 08:06:49;;;;;;;;;;;;;;;8.75;72.10;100555.44;7358496;19;19931;-60
2023/12/06 08:09:17;;;;;;;;;;;;;;;8.74;71.70;100551.97;7369197;19;19933;-61
2023/12/06 08:11:42;;;;;;;;;;;;;;;8.74;71.68;100554.56;7373181;19;20027;-60
2023/12/06 08:14:07;;;;;;;;;;;;;;;8.73;71.96;100567.63;7365692;19;19997;-61
2023/12/06 08:16:33;;;;;;;;;;;;;;;8.73;72.15;100575.44;7366388;19;19919;-61
2023/12/06 08:18:58;;;;;;;;;;;;;;;8.73;71.87;100575.44;7367469;19;19930;-60
2023/12/06 08:21:24;;;;;;;;;;;;;;;8.73;72.46;100575.44;7367707;19;19915;-61
2023/12/06 08:23:49;;;;;;;;;;;;;;;8.76;72.38;100580.56;7360943;19;19958;-61
2023/12/06 08:26:14;;;;;;;;;;;;;;;8.76;72.52;100581.44;7371818;19;20001;-61
2023/12/06 08:28:40;;;;;;;;;;;;;;;8.77;72.30;100590.97;7361777;19;19925;-61
2023/12/06 08:31:08;;;;;;;;;;;;;;;8.79;72.35;100581.38;7374470;19;19970;-60
2023/12/06 08:33:33;;;;;;;;;;;;;;;8.82;72.44;100585.69;7371190;19;19922;-60
2023/12/06 08:35:58;;;;;;;;;;;;;;;8.84;72.72;100581.31;7362197;19;19919;-61
2023/12/06 08:38:23;;;;;;;;;;;;;;;8.86;72.60;100582.13;7375244;19;19937;-60
2023/12/06 08:40:49;;;;;;;;;;;;;;;8.89;72.53;100571.66;7366329;19;19918;-62
2023/12/06 08:43:14;;;;;;;;;;;;;;;8.92;72.74;100582.03;7367816;19;19915;-60
2023/12/06 08:45:39;;;;;;;;;;;;;;;8.95;72.67;100566.34;7369828;19;20273;-60
2023/12/06 08:48:05;;;;;;;;;;;;;;;8.97;72.93;100572.41;7363654;19;19934;-61
2023/12/06 08:50:30;;;;;;;;;;;;;;;8.94;72.98;100559.44;7365021;19;19922;-60
2023/12/06 08:52:55;;;;;;;;;;;;;;;9.01;72.66;100566.22;7366163;19;19902;-59
2023/12/06 08:55:20;;;;;;;;;;;;;;;9.04;72.47;100580.97;7365638;19;19978;-61
2023/12/06 08:57:46;;;;;;;;;;;;;;;9.06;72.44;100574.81;7370940;19;19907;-60
2023/12/06 09:00:12;;;;;;;;;;;;;;;9.08;72.86;100567.84;7364935;19;19915;-60
2023/12/06 09:02:38;;;;;;;;;;;;;;;9.10;72.74;100573.03;7366646;19;19998;-61
2023/12/06 09:05:04;;;;;;;;;;;;;;;9.10;72.75;100562.59;7364100;19;20260;-61
2023/12/06 09:07:29;;;;;;;;;;;;;;;9.14;72.84;100572.09;7367244;19;19982;-60
2023/12/06 09:09:54;;;;;;;;;;;;;;;9.17;72.40;100571.16;7357990;19;19918;-61
2023/12/06 09:12:21;;;;;;;;;;;;;;;9.18;72.63;100557.25;7364136;19;19922;-60
2023/12/06 09:14:46;;;;;;;;;;;;;;;9.19;72.57;100558.97;7363595;19;19921;-59
2023/12/06 09:17:11;;;;;;;;;;;;;;;9.21;72.81;100546.75;7367866;19;19915;-60
2023/12/06 09:19:37;;;;;;;;;;;;;;;9.22;72.63;100543.25;7359568;19;20687;-61
2023/12/06 09:22:03;;;;;;;;;;;;;;;9.24;72.39;100546.72;7368046;19;19937;-61
2023/12/06 09:24:28;;;;;;;;;;;;;;;9.26;72.34;100550.13;7351407;19;20986;-60
2023/12/06 09:26:53;;;;;;;;;;;;;;;9.28;72.61;100537.97;7362298;19;19906;-61
2023/12/06 09:29:19;;;;;;;;;;;;;;;9.29;72.74;100539.66;7335993;19;20492;-61
2023/12/06 09:31:44;;;;;;;;;;;;;;;9.32;72.59;100534.38;7365943;19;19927;-61
2023/12/06 09:34:09;;;;;;;;;;;;;;;9.33;72.59;100541.31;7359836;19;19933;-58
2023/12/06 09:36:35;;;;;;;;;;;;;;;9.35;72.58;100539.53;7365309;19;20615;-60
2023/12/06 09:39:00;;;;;;;;;;;;;;;9.37;72.38;100548.16;7359434;19;20355;-61
2023/12/06 09:41:27;;;;;;;;;;;;;;;9.39;72.45;100535.97;7364569;19;20478;-61
2023/12/06 09:43:52;;;;;;;;;;;;;;;9.41;72.28;100535.94;7349132;19;20608;-60
2023/12/06 09:46:18;;;;;;;;;;;;;;;9.42;72.71;100530.69;7363313;19;19922;-61
2023/12/06 09:48:43;;;;;;;;;;;;;;;9.45;72.50;100530.63;7364585;19;19919;-61
2023/12/06 09:51:08;;;;;;;;;;;;;;;9.48;72.74;100530.59;7364080;19;19939;-61
2023/12/06 09:53:34;;;;;;;;;;;;;;;9.51;72.60;100534.84;7360814;19;19934;-61
2023/12/06 09:56:00;;;;;;;;;;;;;;;9.53;72.70;100531.34;7362110;19;19949;-61
2023/12/06 09:58:25;;;;;;;;;;;;;;;9.56;72.35;100541.69;7364194;19;19914;-61
2023/12/06 10:00:50;;;;;;;;;;;;;;;9.60;72.70;100537.28;7359836;19;19928;-60
2023/12/06 10:03:15;;;;;;;;;;;;;;;9.65;72.46;100526.75;7365418;19;19919;-61
2023/12/06 10:05:41;;;;;;;;;;;;;;;9.68;72.38;100524.06;7362821;19;20393;-60
2023/12/06 10:08:07;;;;;;;;;;;;;;;9.71;72.63;100524.88;7363397;19;19928;-61
2023/12/06 10:10:32;;;;;;;;;;;;;;;9.75;72.51;100525.66;7362884;19;19918;-60
2023/12/06 10:12:57;;;;;;;;;;;;;;;9.77;72.14;100516.91;7362521;19;20010;-60
2023/12/06 10:15:23;;;;;;;;;;;;;;;9.82;72.29;100503.75;7358452;19;20265;-61
2023/12/06 10:17:49;;;;;;;;;;;;;;;9.87;72.62;100496.69;7365907;19;20461;-59
2023/12/06 10:20:14;;;;;;;;;;;;;;;9.91;72.28;100492.25;7356121;19;20291;-61
2023/12/06 10:22:41;;;;;;;;;;;;;;;9.96;72.36;100491.25;7366801;19;19915;-61
2023/12/06 10:25:07;;;;;;;;;;;;;;;10.01;72.50;100478.97;7355828;19;19911;-60
2023/12/06 10:27:34;;;;;;;;;;;;;;;10.07;72.03;100484.03;7354033;19;19914;-60
2023/12/06 10:30:00;;;;;;;;;;;;;;;10.10;72.35;100477.91;7364290;19;20358;-61
2023/12/06 10:32:25;;;;;;;;;;;;;;;10.13;71.79;100486.47;7361358;19;19993;-60
2023/12/06 10:34:51;;;;;;;;;;;;;;;10.18;71.84;100493.34;7362823;19;19933;-60
2023/12/06 10:37:21;;;;;;;;;;;;;;;10.20;71.61;100491.59;7360491;19;19919;-60
2023/12/06 10:39:49;;;;;;;;;;;;;;;10.21;71.33;100483.69;7362803;19;20343;-61
2023/12/06 10:42:17;;;;;;;;;;;;;;;10.21;71.62;100477.63;7360007;19;19911;-62
2023/12/06 10:44:43;;;;;;;;;;;;;;;10.22;71.29;100463.69;7364266;19;19919;-60
2023/12/06 10:47:09;;;;;;;;;;;;;;;10.23;71.37;100460.16;7354935;19;19933;-60
2023/12/06 10:49:36;;;;;;;;;;;;;;;10.25;71.22;100455.81;7357908;19;20299;-60
2023/12/06 10:52:03;;;;;;;;;;;;;;;10.26;71.48;100457.53;7361037;19;19929;-60
2023/12/06 10:54:29;;;;;;;;;;;;;;;10.28;71.19;100458.34;7363923;19;19982;-60
2023/12/06 10:56:56;;;;;;;;;;;;;;;10.29;71.20;100462.66;7362921;19;19914;-60
2023/12/06 10:59:22;;;;;;;;;;;;;;;10.30;70.85;100464.41;7359100;19;19927;-61
2023/12/06 11:01:47;;;;;;;;;;;;;;;10.32;70.82;100447.78;7359606;19;20355;-61
2023/12/06 11:04:14;;;;;;;;;;;;;;;10.33;71.11;100440.81;7361640;19;19922;-59
2023/12/06 11:06:59;;;;;;;;;;;;;;;10.33;71.25;100443.41;7373829;19;20315;-60
2023/12/06 11:09:43;;;;;;;;;;;;;;;10.35;70.83;100442.50;7366053;19;20359;-59
2023/12/06 11:12:30;;;;;;;;;;;;;;;10.37;70.73;100440.69;7364728;19;19918;-61
2023/12/06 11:15:01;;;;;;;;;;;;;;;10.40;70.94;100439.78;7371085;19;19926;-60
2023/12/06 11:17:30;;;;;;;;;;;;;;;10.40;70.96;100429.31;7369514;19;19911;-61
2023/12/06 11:19:55;;;;;;;;;;;;;;;10.41;70.91;100417.97;7364747;19;19923;-61
2023/12/06 11:22:24;;;;;;;;;;;;;;;10.43;70.52;100418.78;7376001;19;19925;-61
2023/12/06 11:24:49;;;;;;;;;;;;;;;10.45;70.81;100422.22;7376138;19;20550;-60
2023/12/06 11:27:15;;;;;;;;;;;;;;;10.49;70.86;100407.31;7373971;19;19914;-60
2023/12/06 11:29:40;;;;;;;;;;;;;;;10.53;70.48;100398.50;7368740;19;19922;-60
2023/12/06 11:32:10;;;;;;;;;;;;;;;10.57;70.87;100400.16;7370900;19;19919;-60
2023/12/06 11:34:36;;;;;;;;;;;;;;;10.59;70.52;100408.78;7367656;19;19926;-60
2023/12/06 11:37:03;;;;;;;;;;;;;;;10.61;70.11;100402.63;7373789;19;20774;-61
2023/12/06 11:39:29;;;;;;;;;;;;;;;10.64;70.05;100401.69;7366251;19;19927;-59
2023/12/06 11:41:54;;;;;;;;;;;;;;;10.63;70.31;100393.00;7369849;19;19964;-61
2023/12/06 11:44:20;;;;;;;;;;;;;;;10.64;70.04;100401.69;7356286;19;19930;-61
2023/12/06 11:46:53;;;;;;;;;;;;;;;10.64;69.89;100399.06;7368304;19;20341;-61
2023/12/06 11:49:25;;;;;;;;;;;;;;;10.63;69.64;100410.41;7366472;19;19999;-61
2023/12/06 11:51:54;;;;;;;;;;;;;;;10.60;69.86;100405.31;7371579;19;19918;-61
2023/12/06 11:54:19;;;;;;;;;;;;;;;10.59;69.84;100399.22;7363191;19;19933;-61
2023/12/06 11:56:45;;;;;;;;;;;;;;;10.57;69.53;100403.63;7368831;19;19919;-60
2023/12/06 11:59:10;;;;;;;;;;;;;;;10.56;69.70;100401.91;7368934;19;19934;-61
2023/12/06 12:01:36;;;;;;;;;;;;;;;10.56;69.63;100398.44;7368100;19;20010;-61
2023/12/06 12:04:01;;;;;;;;;;;;;;;10.55;69.56;100389.75;7369803;19;19961;-60
2023/12/06 12:06:28;;;;;;;;;;;;;;;10.53;69.50;100390.69;7367905;19;19919;-59
2023/12/06 12:08:54;;;;;;;;;;;;;;;10.52;69.52;100387.22;7367609;19;19930;-60
2023/12/06 12:11:19;;;;;;;;;;;;;;;10.51;69.58;100385.50;7365393;19;20014;-61
2023/12/06 12:13:44;;;;;;;;;;;;;;;10.51;69.67;100382.91;7366686;19;19915;-61
2023/12/06 12:16:12;;;;;;;;;;;;;;;10.51;69.58;100400.31;7362027;19;19995;-61
2023/12/06 12:18:38;;;;;;;;;;;;;;;10.49;69.79;100392.53;7369497;19;19941;-61
2023/12/06 12:21:07;;;;;;;;;;;;;;;10.47;69.57;100396.94;7375959;19;19915;-60
2023/12/06 12:23:32;;;;;;;;;;;;;;;10.45;69.64;100380.47;7373369;19;19982;-61
2023/12/06 12:25:57;;;;;;;;;;;;;;;10.43;69.58;100371.81;7356649;19;20002;-61
2023/12/06 12:28:23;;;;;;;;;;;;;;;10.40;70.07;100382.34;7367374;19;19914;-60
2023/12/06 12:30:55;;;;;;;;;;;;;;;10.38;70.01;100378.91;7366157;19;19922;-60
2023/12/06 12:33:21;;;;;;;;;;;;;;;10.35;70.10;100373.78;7370152;19;19922;-61
2023/12/06 12:35:46;;;;;;;;;;;;;;;10.34;70.36;100351.16;7362496;19;20377;-60
2023/12/06 12:38:12;;;;;;;;;;;;;;;10.31;70.25;100352.13;7366099;19;19941;-60